Disclaimer

Please do not use the information listed here in-flight or in-navigation, as they are not provided to us by the airports but are provided by volunteers, so they might be outdated.

Search


Regions


Airport information page

Radio informations:
Common traffic adv. frequency (CTAF) - 123.2 MHz

Airport informations:
Latitude: 55° 56' 00.00" N
Longitude: 129° 59' 00.00" W
Elevation: 24 feet - 7 meters
Operating hours: N/A
Operating agency: Municipal
Timezone: Second Sunday in March at 0200 to first Sunday in November at 0200 local time (Exception Arizona and that portion of Indiana in the Eastern Time Zone)
Fuel: N/A

Runway information:
18/36 - 3900 x 75 feet< - >1189 x 23 meters

Recent METARs:
CZST 181600Z 00000KT 3SM -RA BR FEW004 OVC015 02/02 A3021 RMK SC2SC6 SLP233
CZST 181700Z 00000KT 3SM -RA BR FEW004 SCT015 OVC030 02/02 A3022 RMK SC2SC1SC5 SLP235
CZST 181700Z 00000KT 3SM -RA BR FEW004 SCT015 OVC030 02/02 A3022 RMK SC2SC1SC5 SLP235

Airport on the map: